createdAt,value
2018-07-28T00:01:17.904Z,5.97
2018-07-28T00:03:45.657Z,6.27
2018-07-28T00:06:13.378Z,5.77
2018-07-28T00:08:41.150Z,5.47
2018-07-28T00:11:08.839Z,6.07
2018-07-28T00:13:36.642Z,6.47
2018-07-28T00:16:04.390Z,5.50
2018-07-28T00:18:32.127Z,6.17
2018-07-28T00:20:59.857Z,5.30
2018-07-28T00:23:27.597Z,6.07
2018-07-28T00:26:00.915Z,6.00
2018-07-28T00:28:28.610Z,6.20
2018-07-28T00:30:56.299Z,5.80
2018-07-28T00:33:23.966Z,6.40
2018-07-28T00:35:51.905Z,5.57
2018-07-28T00:38:19.727Z,5.80
2018-07-28T00:40:47.523Z,5.53
2018-07-28T00:43:15.329Z,6.50
2018-07-28T00:45:43.083Z,5.50
2018-07-28T00:48:10.835Z,5.80
2018-07-28T00:50:38.446Z,6.30
2018-07-28T00:53:06.824Z,5.70
2018-07-28T00:55:34.760Z,6.50
2018-07-28T00:58:02.695Z,5.70
2018-07-28T01:00:30.547Z,6.70
2018-07-28T01:02:58.567Z,5.63
2018-07-28T01:05:26.304Z,6.60
2018-07-28T01:07:54.063Z,6.67
2018-07-28T01:10:21.859Z,6.53
2018-07-28T01:12:49.617Z,6.10
2018-07-28T01:15:17.383Z,6.10
2018-07-28T01:17:45.188Z,6.00
2018-07-28T01:20:13.024Z,6.53
2018-07-28T01:22:41.091Z,5.80
2018-07-28T01:25:10.403Z,6.10
2018-07-28T01:27:38.610Z,6.00
2018-07-28T01:30:08.682Z,5.97
2018-07-28T01:32:36.418Z,5.90
2018-07-28T01:35:04.632Z,5.60
2018-07-28T01:37:32.431Z,6.10
2018-07-28T01:40:00.202Z,6.73
2018-07-28T01:42:27.983Z,6.47
2018-07-28T01:44:55.684Z,6.33
2018-07-28T01:47:23.570Z,6.27
2018-07-28T01:49:51.315Z,5.63
2018-07-28T01:52:19.108Z,7.00
2018-07-28T01:54:46.877Z,5.83
2018-07-28T01:57:14.647Z,5.73
2018-07-28T01:59:42.473Z,6.57
2018-07-28T02:02:10.188Z,6.40
2018-07-28T02:04:37.954Z,6.40
2018-07-28T02:07:05.762Z,6.10
2018-07-28T02:09:33.571Z,7.10
2018-07-28T02:12:01.333Z,5.83
2018-07-28T02:14:29.077Z,5.63
2018-07-28T02:16:56.878Z,6.90
2018-07-28T02:19:24.764Z,7.13
2018-07-28T02:21:52.622Z,6.03
2018-07-28T02:24:20.400Z,5.90
2018-07-28T02:26:48.007Z,7.50
2018-07-28T02:29:15.760Z,5.80
2018-07-28T02:31:43.510Z,6.23
2018-07-28T02:34:11.259Z,6.57
2018-07-28T02:36:38.932Z,6.30
2018-07-28T02:39:07.306Z,6.57
2018-07-28T02:41:34.919Z,6.50
2018-07-28T02:44:02.927Z,6.73
2018-07-28T02:46:30.684Z,5.37
2018-07-28T02:48:58.317Z,6.07
2018-07-28T02:51:26.238Z,6.30
2018-07-28T02:53:53.878Z,5.90
2018-07-28T02:56:21.660Z,6.63
2018-07-28T02:58:49.271Z,6.50
2018-07-28T03:01:17.012Z,6.80
2018-07-28T03:03:44.766Z,5.70
2018-07-28T03:06:12.505Z,6.87
2018-07-28T03:08:40.135Z,5.80
2018-07-28T03:11:07.989Z,5.83
2018-07-28T03:13:35.774Z,6.67
2018-07-28T03:16:09.587Z,6.43
2018-07-28T03:18:37.320Z,6.03
2018-07-28T03:21:05.144Z,6.70
2018-07-28T03:23:32.892Z,6.00
2018-07-28T03:26:00.686Z,5.60
2018-07-28T03:28:28.405Z,6.37
2018-07-28T03:30:56.139Z,6.43
2018-07-28T03:33:23.887Z,5.30
2018-07-28T03:35:51.635Z,6.07
2018-07-28T03:38:19.267Z,6.70
2018-07-28T03:40:47.054Z,6.37
2018-07-28T03:43:14.838Z,6.57
2018-07-28T03:45:42.614Z,6.00
2018-07-28T03:48:10.359Z,6.40
2018-07-28T03:50:38.143Z,6.00
2018-07-28T03:53:05.928Z,6.10
2018-07-28T03:55:33.675Z,5.87
2018-07-28T03:58:01.416Z,6.50
2018-07-28T04:00:29.183Z,5.90
2018-07-28T04:02:56.970Z,6.80
2018-07-28T04:05:24.686Z,6.20
2018-07-28T04:07:52.450Z,6.63
2018-07-28T04:10:20.185Z,5.83
2018-07-28T04:12:47.942Z,6.00
2018-07-28T04:15:15.707Z,6.13
2018-07-28T04:17:49.033Z,5.83
2018-07-28T04:20:16.787Z,6.33
2018-07-28T04:22:44.541Z,7.03
2018-07-28T04:25:12.337Z,6.20
2018-07-28T04:27:40.311Z,5.77
2018-07-28T04:30:08.150Z,6.53
2018-07-28T04:32:36.168Z,5.13
2018-07-28T04:35:04.040Z,6.20
2018-07-28T04:37:31.774Z,5.30
2018-07-28T04:39:59.378Z,5.70
2018-07-28T04:42:27.184Z,5.33
2018-07-28T04:44:54.923Z,5.63
2018-07-28T04:47:22.659Z,5.30
2018-07-28T04:49:50.459Z,5.53
2018-07-28T04:52:18.228Z,5.87
2018-07-28T04:54:45.984Z,5.30
2018-07-28T04:57:13.723Z,5.20
2018-07-28T04:59:41.775Z,5.70
2018-07-28T05:02:09.720Z,6.00
2018-07-28T05:04:37.495Z,5.33
2018-07-28T05:07:05.179Z,4.87
2018-07-28T05:09:32.954Z,5.67
2018-07-28T05:12:00.676Z,4.40
2018-07-28T05:14:28.419Z,5.27
2018-07-28T05:16:56.148Z,5.53
2018-07-28T05:19:23.927Z,5.00
2018-07-28T05:21:51.675Z,5.53
2018-07-28T05:24:19.664Z,5.10
2018-07-28T05:26:47.415Z,5.20
2018-07-28T05:29:15.131Z,5.20
2018-07-28T05:31:42.891Z,5.03
2018-07-28T05:34:10.607Z,4.10
2018-07-28T05:36:38.427Z,4.93
2018-07-28T05:39:08.872Z,5.20
2018-07-28T05:41:36.640Z,5.30
2018-07-28T05:44:04.507Z,4.77
2018-07-28T05:46:32.265Z,5.17
2018-07-28T05:49:00.053Z,5.00
2018-07-28T05:51:28.643Z,5.40
2018-07-28T05:53:56.406Z,5.23
2018-07-28T05:56:24.203Z,4.80
2018-07-28T05:58:52.276Z,5.27
2018-07-28T06:01:20.072Z,5.03
2018-07-28T06:03:47.767Z,5.70
2018-07-28T06:06:15.541Z,5.67
2018-07-28T06:08:43.328Z,5.40
2018-07-28T06:11:11.107Z,5.37
2018-07-28T06:13:38.927Z,5.17
2018-07-28T06:16:06.703Z,5.57
2018-07-28T06:18:34.469Z,5.93
2018-07-28T06:21:02.191Z,4.70
2018-07-28T06:23:29.839Z,5.20
2018-07-28T06:25:57.649Z,5.10
2018-07-28T06:28:25.391Z,5.10
2018-07-28T06:30:53.189Z,6.00
2018-07-28T06:33:20.939Z,5.23
2018-07-28T06:35:48.711Z,5.73
2018-07-28T06:38:16.534Z,5.73
2018-07-28T06:40:44.192Z,6.10
2018-07-28T06:43:11.952Z,5.60
2018-07-28T06:45:39.686Z,5.50
2018-07-28T06:48:07.491Z,4.70
2018-07-28T06:50:35.119Z,6.30
2018-07-28T06:53:02.954Z,5.00
2018-07-28T06:55:30.735Z,5.57
2018-07-28T06:57:58.539Z,5.73
2018-07-28T07:00:26.347Z,5.13
2018-07-28T07:02:54.088Z,6.30
2018-07-28T07:05:21.833Z,6.77
2018-07-28T07:07:49.595Z,6.60
2018-07-28T07:10:17.360Z,7.10
2018-07-28T07:12:45.190Z,9.60
2018-07-28T07:15:12.927Z,7.23
2018-07-28T07:17:40.679Z,6.90
2018-07-28T07:20:08.310Z,6.53
2018-07-28T07:22:36.207Z,6.73
2018-07-28T07:25:03.895Z,6.73
2018-07-28T07:27:31.639Z,6.27
2018-07-28T07:29:59.495Z,7.73
2018-07-28T07:32:27.154Z,6.87
2018-07-28T07:34:54.943Z,8.00
2018-07-28T07:37:22.555Z,6.00
2018-07-28T07:39:50.355Z,7.20
2018-07-28T07:42:18.199Z,5.93
2018-07-28T07:44:45.975Z,6.80
2018-07-28T07:47:13.932Z,6.40
2018-07-28T07:49:41.735Z,7.13
2018-07-28T07:52:09.457Z,6.00
2018-07-28T07:54:37.667Z,6.27
2018-07-28T07:57:05.907Z,6.20
2018-07-28T07:59:33.630Z,6.40
2018-07-28T08:02:01.709Z,6.13
2018-07-28T08:04:29.495Z,6.40
2018-07-28T08:06:57.200Z,5.67
2018-07-28T08:09:24.932Z,5.07
2018-07-28T08:11:52.667Z,5.50
2018-07-28T08:14:20.372Z,5.97
2018-07-28T08:16:48.067Z,5.47
2018-07-28T08:19:15.650Z,6.30
2018-07-28T08:21:43.355Z,5.60
2018-07-28T08:24:11.087Z,5.60
2018-07-28T08:26:38.841Z,5.63
2018-07-28T08:29:06.409Z,6.50
2018-07-28T08:31:34.164Z,6.80
2018-07-28T08:34:01.846Z,6.07
2018-07-28T08:36:29.591Z,6.37
2018-07-28T08:38:57.283Z,6.60
2018-07-28T08:41:25.018Z,4.97
2018-07-28T08:43:52.722Z,5.30
2018-07-28T08:46:20.422Z,6.50
2018-07-28T08:48:48.053Z,5.57
2018-07-28T08:51:15.939Z,5.70
2018-07-28T08:53:43.630Z,4.87
2018-07-28T08:56:11.356Z,6.20
2018-07-28T08:58:39.323Z,5.50
2018-07-28T09:01:07.040Z,6.03
2018-07-28T09:03:34.785Z,5.57
2018-07-28T09:06:02.611Z,6.60
2018-07-28T09:08:30.283Z,6.40
2018-07-28T09:10:58.015Z,5.70
2018-07-28T09:13:25.750Z,5.63
2018-07-28T09:15:53.439Z,5.70
2018-07-28T09:18:21.234Z,6.60
2018-07-28T09:20:48.928Z,6.80
2018-07-28T09:23:16.620Z,5.50
2018-07-28T09:25:44.363Z,5.70
2018-07-28T09:28:12.055Z,5.53
2018-07-28T09:30:39.884Z,6.97
2018-07-28T09:33:07.612Z,6.27
2018-07-28T09:35:35.401Z,6.00
2018-07-28T09:38:03.207Z,4.80
2018-07-28T09:40:30.928Z,4.80
2018-07-28T09:42:58.696Z,5.00
2018-07-28T09:45:26.348Z,5.37
2018-07-28T09:47:54.060Z,4.97
2018-07-28T09:50:21.791Z,4.30
2018-07-28T09:52:49.519Z,5.00
2018-07-28T09:55:17.272Z,5.50
2018-07-28T09:57:45.016Z,5.40
2018-07-28T10:00:17.283Z,4.20
2018-07-28T10:02:44.992Z,5.67
2018-07-28T10:05:12.722Z,4.90
2018-07-28T10:07:40.490Z,5.83
2018-07-28T10:10:08.230Z,5.17
2018-07-28T10:12:35.957Z,4.33
2018-07-28T10:15:03.961Z,6.00
2018-07-28T10:17:31.728Z,5.10
2018-07-28T10:19:59.495Z,4.90
2018-07-28T10:22:27.278Z,6.03
2018-07-28T10:24:55.001Z,4.80
2018-07-28T10:27:22.739Z,4.53
2018-07-28T10:29:50.477Z,4.57
2018-07-28T10:32:18.235Z,4.67
2018-07-28T10:34:45.981Z,4.17
2018-07-28T10:37:14.687Z,3.63
2018-07-28T10:39:42.478Z,3.30
2018-07-28T10:42:10.218Z,3.83
2018-07-28T10:44:37.967Z,4.43
2018-07-28T10:47:05.691Z,3.70
2018-07-28T10:49:33.311Z,3.37
2018-07-28T10:52:01.056Z,4.37
2018-07-28T10:54:28.799Z,3.90
2018-07-28T10:56:56.532Z,4.30
2018-07-28T10:59:24.259Z,3.40
2018-07-28T11:01:52.029Z,3.53
2018-07-28T11:04:19.778Z,3.90
2018-07-28T11:06:47.507Z,4.07
2018-07-28T11:09:15.165Z,4.40
2018-07-28T11:11:42.889Z,4.17
2018-07-28T11:14:10.598Z,3.43
2018-07-28T11:16:38.343Z,4.90
2018-07-28T11:19:06.105Z,4.73
2018-07-28T11:21:33.783Z,4.43
2018-07-28T11:24:02.186Z,4.77
2018-07-28T11:26:29.922Z,4.70
2018-07-28T11:28:57.659Z,5.13
2018-07-28T11:31:36.896Z,4.70
2018-07-28T11:34:15.819Z,5.17
2018-07-28T11:36:55.495Z,4.97
2018-07-28T11:40:33.122Z,4.63
2018-07-28T11:44:10.880Z,4.73
2018-07-28T11:46:38.615Z,4.90
2018-07-28T11:49:06.305Z,4.80
2018-07-28T11:51:34.062Z,4.73
2018-07-28T11:54:01.806Z,4.10
2018-07-28T11:56:29.502Z,5.10
2018-07-28T11:58:57.232Z,4.80
2018-07-28T12:01:24.943Z,5.03
2018-07-28T12:03:52.562Z,5.97
2018-07-28T12:06:20.302Z,5.53
2018-07-28T12:08:48.038Z,5.07
2018-07-28T12:11:15.761Z,5.30
2018-07-28T12:13:43.483Z,5.07
2018-07-28T12:16:11.083Z,5.33
2018-07-28T12:18:38.895Z,5.50
2018-07-28T12:21:06.556Z,5.43
2018-07-28T12:23:34.258Z,5.00
2018-07-28T12:26:01.983Z,5.77
2018-07-28T12:28:29.555Z,5.30
2018-07-28T12:30:57.185Z,4.90
2018-07-28T12:33:24.907Z,5.30
2018-07-28T12:35:52.615Z,4.93
2018-07-28T12:38:20.359Z,5.00
2018-07-28T12:40:48.059Z,5.40
2018-07-28T12:43:15.651Z,5.73
2018-07-28T12:45:43.366Z,5.03
2018-07-28T12:48:11.129Z,4.50
2018-07-28T12:50:38.903Z,5.50
2018-07-28T12:53:06.506Z,4.70
2018-07-28T12:55:34.218Z,4.30
2018-07-28T12:58:01.828Z,4.93
2018-07-28T13:00:29.556Z,4.37
2018-07-28T13:02:57.182Z,4.30
2018-07-28T13:05:24.909Z,4.60
2018-07-28T13:07:52.631Z,5.07
2018-07-28T13:10:20.373Z,4.80
2018-07-28T13:12:48.091Z,4.67
2018-07-28T13:15:15.771Z,6.90
2018-07-28T13:17:43.483Z,4.70
2018-07-28T13:20:11.152Z,4.63
2018-07-28T13:22:38.871Z,4.83
2018-07-28T13:25:06.595Z,6.13
2018-07-28T13:27:34.334Z,5.13
2018-07-28T13:30:02.076Z,4.83
2018-07-28T13:32:29.791Z,4.40
2018-07-28T13:34:57.526Z,5.00
2018-07-28T13:37:26.087Z,5.90
2018-07-28T13:39:53.806Z,5.50
2018-07-28T13:42:21.507Z,5.07
2018-07-28T13:44:49.203Z,4.70
2018-07-28T13:47:16.915Z,6.27
2018-07-28T13:49:44.659Z,5.20
2018-07-28T13:52:12.410Z,4.13
2018-07-28T13:54:40.117Z,5.03
2018-07-28T13:57:07.890Z,4.50
2018-07-28T13:59:35.600Z,4.53
2018-07-28T14:02:03.417Z,4.20
2018-07-28T14:04:31.130Z,4.37
2018-07-28T14:06:58.714Z,4.50
2018-07-28T14:09:26.431Z,3.70
2018-07-28T14:11:54.124Z,4.00
2018-07-28T14:14:21.871Z,4.10
2018-07-28T14:16:49.615Z,3.57
2018-07-28T14:19:17.314Z,3.30
2018-07-28T14:21:45.060Z,4.23
2018-07-28T14:24:12.776Z,4.00
2018-07-28T14:26:40.479Z,3.50
2018-07-28T14:29:08.187Z,3.97
2018-07-28T14:31:36.001Z,3.20
2018-07-28T14:34:03.700Z,4.50
2018-07-28T14:36:31.471Z,4.10
2018-07-28T14:38:59.515Z,3.70
2018-07-28T14:41:27.207Z,4.50
2018-07-28T14:43:55.014Z,4.17
2018-07-28T14:46:22.691Z,3.53
2018-07-28T14:48:50.413Z,3.60
2018-07-28T14:51:18.143Z,3.50
2018-07-28T14:53:45.854Z,4.00
2018-07-28T14:56:13.553Z,3.53
2018-07-28T14:58:41.303Z,3.93
2018-07-28T15:01:08.989Z,4.13
2018-07-28T15:03:36.682Z,4.20
2018-07-28T15:06:04.444Z,3.63
2018-07-28T15:08:32.175Z,4.10
2018-07-28T15:10:59.977Z,3.30
2018-07-28T15:13:27.713Z,3.20
2018-07-28T15:15:55.467Z,3.50
2018-07-28T15:18:23.206Z,3.60
2018-07-28T15:20:50.923Z,3.67
2018-07-28T15:23:18.623Z,3.83
2018-07-28T15:25:46.308Z,3.37
2018-07-28T15:28:14.017Z,3.63
2018-07-28T15:30:41.771Z,4.10
2018-07-28T15:33:09.497Z,4.10
2018-07-28T15:35:37.189Z,3.80
2018-07-28T15:38:04.834Z,4.03
2018-07-28T15:40:32.541Z,4.23
2018-07-28T15:43:00.259Z,4.00
2018-07-28T15:45:28.004Z,3.63
2018-07-28T15:47:55.812Z,4.20
2018-07-28T15:50:23.426Z,3.63
2018-07-28T15:52:51.139Z,3.50
2018-07-28T15:55:18.875Z,3.10
2018-07-28T15:57:46.632Z,3.70
2018-07-28T16:00:16.931Z,4.47
2018-07-28T16:02:44.720Z,3.37
2018-07-28T16:05:12.593Z,3.30
2018-07-28T16:07:40.344Z,3.60
2018-07-28T16:10:08.089Z,2.93
2018-07-28T16:12:35.827Z,2.80
2018-07-28T16:15:04.036Z,2.70
2018-07-28T16:17:31.861Z,2.93
2018-07-28T16:19:59.809Z,2.87
2018-07-28T16:22:27.412Z,2.93
2018-07-28T16:24:55.155Z,2.77
2018-07-28T16:27:22.851Z,2.40
2018-07-28T16:29:50.570Z,2.43
2018-07-28T16:32:18.155Z,3.03
2018-07-28T16:34:46.023Z,2.67
2018-07-28T16:37:13.783Z,3.23
2018-07-28T16:39:41.528Z,2.33
2018-07-28T16:42:09.291Z,2.03
2018-07-28T16:44:37.048Z,3.50
2018-07-28T16:47:04.658Z,2.53
2018-07-28T16:49:32.368Z,2.50
2018-07-28T16:52:00.127Z,3.33
2018-07-28T16:54:27.893Z,2.37
2018-07-28T16:56:55.607Z,3.10
2018-07-28T16:59:23.363Z,2.13
2018-07-28T17:01:51.108Z,2.20
2018-07-28T17:04:18.731Z,2.87
2018-07-28T17:06:46.432Z,3.17
2018-07-28T17:09:14.192Z,2.97
2018-07-28T17:11:42.591Z,2.73
2018-07-28T17:14:10.511Z,2.57
2018-07-28T17:16:38.199Z,2.70
2018-07-28T17:19:05.906Z,4.30
2018-07-28T17:21:33.627Z,3.53
2018-07-28T17:24:01.311Z,2.67
2018-07-28T17:26:29.024Z,3.30
2018-07-28T17:28:56.728Z,4.00
2018-07-28T17:31:24.514Z,2.60
2018-07-28T17:33:52.457Z,4.10
2018-07-28T17:36:20.033Z,3.40
2018-07-28T17:38:47.908Z,4.73
2018-07-28T17:41:15.937Z,4.17
2018-07-28T17:43:43.832Z,4.30
2018-07-28T17:46:11.558Z,3.70
2018-07-28T17:48:39.325Z,3.20
2018-07-28T17:51:07.064Z,2.80
2018-07-28T17:53:34.799Z,3.07
2018-07-28T17:56:02.527Z,3.50
2018-07-28T17:58:30.219Z,3.10
2018-07-28T18:00:57.946Z,2.53
2018-07-28T18:03:25.719Z,3.23
2018-07-28T18:05:53.728Z,3.00
2018-07-28T18:08:21.441Z,3.10
2018-07-28T18:10:49.162Z,3.03
2018-07-28T18:13:16.967Z,2.60
2018-07-28T18:15:44.696Z,3.10
2018-07-28T18:18:12.655Z,2.73
2018-07-28T18:20:40.458Z,3.20
2018-07-28T18:23:08.166Z,2.97
2018-07-28T18:25:35.950Z,3.63
2018-07-28T18:28:03.712Z,3.40
2018-07-28T18:30:31.516Z,2.60
2018-07-28T18:32:59.207Z,3.33
2018-07-28T18:35:26.794Z,2.83
2018-07-28T18:37:54.520Z,3.50
2018-07-28T18:40:22.263Z,3.60
2018-07-28T18:42:49.975Z,3.70
2018-07-28T18:45:17.734Z,2.50
2018-07-28T18:47:45.515Z,2.77
2018-07-28T18:50:13.248Z,3.03
2018-07-28T18:52:40.962Z,2.80
2018-07-28T18:55:08.716Z,3.33
2018-07-28T18:57:36.447Z,2.77
2018-07-28T19:00:06.347Z,4.10
2018-07-28T19:02:34.079Z,5.10
2018-07-28T19:05:01.839Z,3.97
2018-07-28T19:07:29.585Z,4.17
2018-07-28T19:09:57.215Z,3.60
2018-07-28T19:12:30.310Z,3.50
2018-07-28T19:14:58.052Z,3.10
2018-07-28T19:17:31.442Z,4.20
2018-07-28T19:19:59.182Z,3.70
2018-07-28T19:22:32.471Z,3.97
2018-07-28T19:25:00.186Z,3.60
2018-07-28T19:27:27.770Z,4.27
2018-07-28T19:29:55.467Z,2.97
2018-07-28T19:32:23.191Z,3.37
2018-07-28T19:34:50.903Z,3.33
2018-07-28T19:37:20.708Z,2.60
2018-07-28T19:39:48.442Z,3.30
2018-07-28T19:42:21.974Z,2.50
2018-07-28T19:44:49.717Z,2.73
2018-07-28T19:47:17.460Z,3.03
2018-07-28T19:49:45.202Z,2.80
2018-07-28T19:52:13.031Z,3.80
2018-07-28T19:54:40.735Z,3.70
2018-07-28T19:57:08.334Z,3.57
2018-07-28T19:59:36.083Z,2.80
2018-07-28T20:02:03.858Z,3.10
2018-07-28T20:04:31.603Z,3.30
2018-07-28T20:06:59.348Z,3.20
2018-07-28T20:09:26.958Z,2.77
2018-07-28T20:11:54.698Z,3.30
2018-07-28T20:14:22.379Z,2.30
2018-07-28T20:16:50.194Z,3.40
2018-07-28T20:19:17.911Z,2.70
2018-07-28T20:21:45.597Z,3.07
2018-07-28T20:24:13.414Z,6.17
2018-07-28T20:26:41.233Z,2.63
2018-07-28T20:29:08.923Z,3.20
2018-07-28T20:31:36.509Z,4.17
2018-07-28T20:34:04.238Z,4.37
2018-07-28T20:36:31.979Z,2.87
2018-07-28T20:38:59.697Z,3.87
2018-07-28T20:41:27.485Z,3.00
2018-07-28T20:43:55.016Z,2.53
2018-07-28T20:46:22.764Z,2.33
2018-07-28T20:48:50.340Z,2.87
2018-07-28T20:51:18.037Z,2.60
2018-07-28T20:53:45.751Z,2.87
2018-07-28T20:56:13.359Z,2.83
2018-07-28T20:58:41.100Z,2.80
2018-07-28T21:01:08.836Z,2.47
2018-07-28T21:03:36.714Z,2.70
2018-07-28T21:06:04.471Z,2.30
2018-07-28T21:08:32.038Z,2.10
2018-07-28T21:10:59.863Z,2.53
2018-07-28T21:13:27.570Z,2.70
2018-07-28T21:15:55.633Z,2.37
2018-07-28T21:18:23.850Z,2.50
2018-07-28T21:20:51.703Z,2.20
2018-07-28T21:23:19.512Z,1.87
2018-07-28T21:25:47.249Z,2.00
2018-07-28T21:28:14.967Z,2.40
2018-07-28T21:30:42.723Z,2.83
2018-07-28T21:33:10.451Z,2.10
2018-07-28T21:35:38.183Z,1.93
2018-07-28T21:38:06.355Z,2.20
2018-07-28T21:40:34.139Z,2.33
2018-07-28T21:43:01.864Z,1.90
2018-07-28T21:45:29.511Z,2.20
2018-07-28T21:47:57.242Z,2.27
2018-07-28T21:50:24.987Z,2.10
2018-07-28T21:52:52.931Z,5.33
2018-07-28T21:55:20.684Z,2.70
2018-07-28T21:57:48.528Z,4.17
2018-07-28T22:00:16.267Z,3.13
2018-07-28T22:02:44.063Z,3.17
2018-07-28T22:05:11.875Z,2.57
2018-07-28T22:07:39.588Z,1.83
2018-07-28T22:10:07.357Z,2.53
2018-07-28T22:12:35.103Z,2.30
2018-07-28T22:15:02.939Z,2.37
2018-07-28T22:17:30.673Z,2.43
2018-07-28T22:19:58.473Z,2.17
2018-07-28T22:22:26.199Z,1.87
2018-07-28T22:24:54.051Z,2.43
2018-07-28T22:27:21.763Z,2.17
2018-07-28T22:29:49.480Z,2.37
2018-07-28T22:32:17.183Z,2.13
2018-07-28T22:34:44.922Z,2.53
2018-07-28T22:37:12.719Z,2.10
2018-07-28T22:39:40.483Z,1.80
2018-07-28T22:42:08.196Z,2.77
2018-07-28T22:44:35.883Z,2.67
2018-07-28T22:47:03.506Z,1.97
2018-07-28T22:49:31.201Z,1.73
2018-07-28T22:51:58.770Z,2.10
2018-07-28T22:54:26.413Z,2.20
2018-07-28T22:56:54.121Z,3.37
2018-07-28T22:59:21.882Z,1.57
2018-07-28T23:01:49.603Z,3.20
2018-07-28T23:04:17.301Z,2.83
2018-07-28T23:06:45.040Z,3.87
2018-07-28T23:09:13.013Z,2.27
2018-07-28T23:11:40.630Z,2.30
2018-07-28T23:14:08.852Z,1.93
2018-07-28T23:16:36.432Z,2.40
2018-07-28T23:19:04.280Z,2.27
2018-07-28T23:21:31.862Z,2.50
2018-07-28T23:23:59.635Z,2.20
2018-07-28T23:26:27.342Z,2.13
2018-07-28T23:28:55.107Z,2.80
2018-07-28T23:31:22.843Z,2.37
2018-07-28T23:33:50.551Z,2.40
2018-07-28T23:36:18.159Z,2.10
2018-07-28T23:38:45.908Z,2.70
2018-07-28T23:41:13.639Z,3.10
2018-07-28T23:43:41.407Z,2.50
2018-07-28T23:46:09.171Z,2.20
2018-07-28T23:48:36.786Z,2.20
2018-07-28T23:51:04.518Z,2.90
2018-07-28T23:53:32.255Z,2.20
2018-07-28T23:55:59.850Z,2.77
2018-07-28T23:58:27.588Z,2.90
